Latest Coastal Weather Observations for Cape Borda

IDT60701

Issued at 5:21 am EST Thursday 5 May 2016 (issued every 10 minutes, with the page automatically refreshed every 10 minutes)

About coastal observations | Map of coastal stations | Coastal observations for TAS | Marine services | Other Formats
Station Details ID: 022823 Name: CAPE BORDA Lat: -35.75 Lon: 136.60 Height: 158.0 m
Data from the previous 72 hours. | See also: Recent months at Cape Borda
Date/Time
EST
Temp

°C
Wind Pressure Rain
since 9am
mm
Weather Cloud Vis
km
Sea
Height
m
Swell
Dir
 
Speed
knots
Gust
knots
hPa Trend Height
m
Period
s
Dir
05/05:00am 15.7 NW 16 25 1011.5 - 1.8 - - - - - - -
05/04:30am 15.6 NW 13 18 1011.7 - 1.8 - - - - - - -
05/04:00am 15.7 NNW 16 23 1011.8 - 1.8 - - - - - - -
05/03:30am 15.8 NNW 16 21 1012.0 - 1.8 - - - - - - -
05/03:00am 15.6 NNW 14 21 1012.2 - 1.8 - - - - - - -
05/02:30am 15.4 NNW 15 22 1012.5 - 1.8 - - - - - - -
05/02:00am 15.4 NNW 16 21 1012.6 - 1.8 - - - - - - -
05/01:30am 15.2 NNW 15 21 1012.7 - 1.8 - - - - - - -
05/01:00am 15.0 NNW 13 19 1012.9 - 1.8 - - - - - - -
05/12:30am 15.6 NNW 14 21 1013.0 - 1.8 - - - - - - -
05/12:00am 15.8 NW 13 17 1013.3 - 1.8 - - - - - - -
 
Date/Time
EST
Temp

°C
Wind Pressure Rain
since 9am
mm
Weather Cloud Vis
km
Sea
Height
m
Swell
Dir
 
Speed
knots
Gust
knots
hPa Trend Height
m
Period
s
Dir
04/11:30pm 15.5 NW 13 17 1013.4 - 1.8 - - - - - - -
04/11:06pm 15.9 NW 16 26 1013.5 - 1.8 - - - - - - -
04/11:00pm 15.8 NW 15 20 1013.6 - 1.8 - - - - - - -
04/10:30pm 15.5 NW 13 17 1013.8 - 1.8 - - - - - - -
04/10:00pm 15.4 NW 14 19 1013.9 - 1.8 - - - - - - -
04/09:30pm 15.1 NW 13 18 1013.9 - 1.8 - - - - - - -
04/09:00pm 15.2 NW 14 19 1013.8 - 1.8 - - - - - - -
04/08:30pm 15.0 NW 16 22 1014.0 - 1.6 - - - - - - -
04/08:00pm 15.1 NW 17 22 1013.9 - 1.6 - - - - - - -
04/07:30pm 14.9 NW 15 21 1013.8 - 1.4 - - - - - - -
04/07:00pm 14.7 NW 17 25 1013.6 - 0.2 - - - - - - -
04/06:47pm 14.8 NW 17 27 1013.5 - 0.2 - - - - - - -
04/06:30pm 15.1 NW 18 24 1013.3 - 0.2 - - - - - - -
04/06:00pm 15.1 NW 16 23 1013.3 - 0.2 - - - - - - -
04/05:30pm 15.1 NW 16 24 1013.3 - 0.2 - - - - - - -
04/05:00pm 15.5 NW 16 24 1013.1 - 0.2 - - - - - - -
04/04:30pm 16.2 NW 16 22 1013.2 - 0.2 - - - - - - -
04/04:00pm 16.5 NW 16 24 1013.1 - 0.2 - - - - - - -
04/03:30pm 16.0 NW 16 22 1013.3 - 0.2 - - - - - - -
04/03:00pm 15.7 NW 16 22 1013.3 - 0.2 - - - - - - -
04/02:30pm 15.8 NW 16 21 1013.7 - 0.2 - - - - - - -
04/02:00pm 17.1 NW 15 20 1013.8 - 0.2 - - - - - - -
04/01:30pm 16.6 NW 14 20 1014.0 - 0.0 - - - - - - -
04/01:00pm 15.7 WNW 9 17 1014.5 - 0.0 - - - - - - -
04/12:30pm 14.2 WNW 11 21 1015.0 - 0.0 - - - - - - -
04/12:00pm 15.8 WNW 11 16 1015.3 - 0.0 - - - - - - -
04/11:30am 16.2 WNW 12 17 1015.5 - 0.0 - - - - - - -
04/11:00am 15.1 WNW 13 19 1015.7 - 0.0 - - - - - - -
04/10:30am 16.1 WNW 14 20 1015.6 - 0.0 - - - - - - -
04/10:00am 15.0 WNW 14 18 1015.6 - 0.0 - - - - - - -
04/09:30am 14.8 WNW 12 19 1015.2 - 1.4 - - - - - - -
04/09:00am 14.5 WNW 10 14 1015.2 - 1.4 - - - - - - -
04/08:30am 13.3 WNW 11 17 1015.0 - 1.4 - - - - - - -
04/08:00am 13.4 W 9 14 1014.7 - 1.4 - - - - - - -
04/07:30am 13.7 W 10 13 1014.4 - 1.4 - - - - - - -
04/07:00am 13.8 W 12 19 1014.0 - 1.4 - - - - - - -
04/06:30am 13.8 WSW 10 16 1013.8 - 1.4 - - - - - - -
04/06:00am 13.7 WSW 11 15 1013.5 - 1.4 - - - - - - -
04/05:30am 13.6 WSW 10 14 1013.4 - 1.4 - - - - - - -
04/05:00am 13.3 WSW 10 15 1013.3 - 1.4 - - - - - - -
04/04:30am 13.3 WSW 13 17 1013.1 - 1.4 - - - - - - -
04/04:00am 12.9 WSW 11 17 1013.0 - 1.4 - - - - - - -
04/03:30am 12.7 WSW 14 21 1013.1 - 1.4 - - - - - - -
04/03:00am 12.4 SW 13 18 1013.2 - 1.4 - - - - - - -
04/02:30am 12.5 SW 11 19 1013.1 - 1.4 - - - - - - -
04/02:00am 11.6 SW 14 21 1013.0 - 1.4 - - - - - - -
04/01:30am 12.7 WSW 14 19 1012.9 - 1.4 - - - - - - -
04/01:00am 11.4 SSW 10 13 1012.9 - 1.4 - - - - - - -
04/12:30am 11.5 WSW 16 26 1013.0 - 1.4 - - - - - - -
04/12:16am 12.4 WSW 15 28 1012.9 - 1.2 - - - - - - -
04/12:00am 12.6 WSW 12 17 1012.8 - 1.2 - - - - - - -
 
Date/Time
EST
Temp

°C
Wind Pressure Rain
since 9am
mm
Weather Cloud Vis
km
Sea
Height
m
Swell
Dir
 
Speed
knots
Gust
knots
hPa Trend Height
m
Period
s
Dir
03/11:31pm 11.7 SW 17 27 1012.8 - 1.2 - - - - - - -
03/11:30pm 11.8 WSW 16 23 1012.8 - 1.2 - - - - - - -
03/11:00pm 12.6 WSW 12 20 1012.7 - 1.2 - - - - - - -
03/10:30pm 11.9 SW 13 19 1012.7 - 1.2 - - - - - - -
03/10:00pm 12.9 SW 12 22 1012.6 - 1.0 - - - - - - -
03/09:30pm 13.8 WSW 14 21 1012.2 - 0.8 - - - - - - -
03/09:00pm 13.0 WSW 12 17 1012.1 - 0.8 - - - - - - -
03/08:30pm 13.2 WSW 13 19 1011.8 - 0.8 - - - - - - -
03/08:00pm 13.9 WSW 15 20 1011.2 - 0.8 - - - - - - -
03/07:30pm 13.4 SW 14 20 1010.8 - 0.8 - - - - - - -
03/07:00pm 14.1 WSW 18 24 1010.3 - 0.8 - - - - - - -
03/06:30pm 14.1 WSW 16 24 1009.6 - 0.8 - - - - - - -
03/06:00pm 14.1 WSW 15 24 1009.3 - 0.8 - - - - - - -
03/05:30pm 13.8 SW 18 26 1009.0 - 0.8 - - - - - - -
03/05:18pm 14.3 SW 21 28 1008.7 - 0.8 - - - - - - -
03/05:04pm 14.7 WSW 20 30 1008.5 - 0.8 - - - - - - -
03/05:00pm 14.9 WSW 18 26 1008.5 - 0.8 - - - - - - -
03/04:30pm 14.3 WSW 20 28 1008.2 - 0.8 - - - - - - -
03/04:00pm 15.1 WSW 20 28 1007.8 - 0.8 - - - - - - -
03/03:30pm 16.0 WSW 20 30 1007.3 R 0.8 Fine Mostly cloudy 10 7 11.0 10 SW
03/03:04pm 15.6 WSW 20 30 1006.8 - 0.8 - - - - - - -
03/03:00pm 15.4 WSW 21 30 1006.9 - 0.8 - - - - - - -
03/02:30pm 15.1 WSW 20 30 1006.7 - 0.8 - - - - - - -
03/02:21pm 15.2 WSW 19 29 1006.7 - 0.8 - - - - - - -
03/02:00pm 14.8 WSW 20 28 1006.7 - 0.8 - - - - - - -
03/01:30pm 12.8 SW 20 31 1006.7 - 0.8 - - - - - - -
03/01:24pm 12.8 SW 21 31 1006.6 - 0.8 - - - - - - -
03/01:00pm 14.0 WSW 19 25 1006.4 - 0.6 - - - - - - -
03/12:30pm 13.2 SW 18 28 1006.5 - 0.6 - - - - - - -
03/12:03pm 13.9 WSW 17 28 1006.4 - 0.4 - - - - - - -
03/12:00pm 14.2 WSW 17 24 1006.4 - 0.2 - - - - - - -
03/11:30am 13.6 WSW 20 28 1006.2 - 0.2 - - - - - - -
03/11:08am 13.5 WSW 19 29 1006.1 - 0.2 - - - - - - -
03/11:00am 13.6 SW 18 26 1006.1 - 0.0 - - - - - - -
03/10:30am 15.5 W 20 29 1005.6 - 0.0 - - - - - - -
03/10:06am 14.6 W 22 33 1005.5 - 0.0 - - - - - - -
03/10:00am 14.1 W 23 32 1005.4 - 0.0 - - - - - - -
03/09:32am 16.4 W 23 33 1005.1 - 0.0 - - - - - - -
03/09:30am 16.3 W 24 33 1005.0 R 7.2 Rain Mostly cloudy 10 11 10.0 8 SW
03/09:00am 16.3 W 26 36 1004.8 - 7.2 - - - - - - -
03/08:30am 16.0 W 22 33 1004.6 - 7.2 - - - - - - -
03/08:00am 16.1 W 29 41 1004.2 - 7.2 - - - - - - -
03/07:30am 15.9 W 25 39 1003.8 - 7.2 - - - - - - -
03/07:00am 15.3 W 26 37 1003.3 - 7.2 - - - - - - -
03/06:38am 15.6 W 22 32 1003.2 - 7.2 - - - - - - -
03/06:30am 15.3 W 20 29 1003.1 - 7.2 - - - - - - -
03/06:00am 14.4 W 24 37 1003.0 - 7.2 - - - - - - -
03/05:30am 16.0 WNW 23 33 1002.6 - 6.0 - - - - - - -
03/05:06am 16.2 NW 24 34 1002.8 - 5.8 - - - - - - -
03/05:00am 16.3 NW 23 32 1002.7 - 5.8 - - - - - - -
03/04:30am 16.1 NW 23 33 1002.6 - 5.8 - - - - - - -
03/04:08am 16.0 WNW 21 31 1002.8 - 5.6 - - - - - - -
03/04:00am 16.0 WNW 20 27 1002.7 - 5.6 - - - - - - -
03/03:38am 15.7 NW 21 31 1003.2 - 5.4 - - - - - - -
03/03:30am 16.0 NW 23 31 1003.0 - 5.2 - - - - - - -
03/03:08am 15.5 NW 24 34 1003.5 - 5.0 - - - - - - -
03/03:00am 15.4 NW 23 31 1003.8 - 5.0 - - - - - - -
03/02:30am 15.7 NW 23 36 1004.2 - 5.0 - - - - - - -
03/02:00am 14.8 WNW 22 32 1004.6 - 4.8 - - - - - - -
03/01:30am 15.3 WNW 27 41 1004.7 - 4.4 - - - - - - -
03/01:00am 16.9 NW 28 38 1004.7 - 4.2 - - - - - - -
03/12:30am 16.9 NW 27 37 1005.1 - 4.2 - - - - - - -
03/12:00am 16.6 NW 25 35 1005.7 - 4.2 - - - - - - -
 
Date/Time
EST
Temp

°C
Wind Pressure Rain
since 9am
mm
Weather Cloud Vis
km
Sea
Height
m
Swell
Dir
 
Speed
knots
Gust
knots
hPa Trend Height
m
Period
s
Dir
02/11:30pm 16.8 NW 26 38 1006.1 - 4.2 - - - - - - -
02/11:00pm 16.8 NW 26 37 1006.2 - 4.2 - - - - - - -
02/10:30pm 16.7 NW 26 37 1006.8 - 4.2 - - - - - - -
02/10:00pm 16.8 NW 23 33 1006.8 - 4.2 - - - - - - -
02/09:31pm 16.1 WNW 21 33 1007.0 - 4.2 - - - - - - -
02/09:30pm 16.0 WNW 21 29 1007.0 - 4.2 - - - - - - -
02/09:05pm 16.3 NW 21 31 1007.3 - 4.2 - - - - - - -
02/09:00pm 16.4 NW 22 31 1007.3 - 4.2 - - - - - - -
02/08:30pm 16.5 NW 23 36 1007.3 - 4.0 - - - - - - -
02/08:10pm 16.6 NW 21 31 1007.6 - 4.0 - - - - - - -
02/08:00pm 16.6 NW 22 31 1007.6 - 4.0 - - - - - - -
02/07:30pm 16.6 WNW 22 33 1007.9 - 4.0 - - - - - - -
02/07:16pm 16.5 WNW 21 31 1007.9 - 4.0 - - - - - - -
02/07:00pm 16.3 WNW 19 27 1007.7 - 4.0 - - - - - - -
02/06:30pm 16.2 WNW 19 32 1007.4 - 4.0 - - - - - - -
02/06:12pm 16.4 WNW 20 30 1007.3 - 4.0 - - - - - - -
02/06:00pm 16.5 WNW 18 26 1007.3 - 4.0 - - - - - - -
02/05:30pm 16.2 WNW 18 29 1007.5 - 4.0 - - - - - - -
02/05:03pm 16.2 WNW 16 26 1007.6 - 4.0 - - - - - - -
02/05:00pm 16.0 WNW 16 23 1007.6 - 4.0 - - - - - - -
02/04:30pm 15.7 WNW 16 26 1007.8 - 3.8 - - - - - - -
02/04:00pm 15.8 WNW 21 31 1007.9 - 3.2 - - - - - - -
02/03:32pm 16.0 WNW 19 29 1008.2 - 3.2 - - - - - - -
02/03:30pm 15.9 WNW 19 27 1008.2 - 3.2 - - - - - - -
02/03:00pm 15.7 WNW 20 30 1008.5 - 2.6 - - - - - - -
02/02:52pm 14.8 W 21 31 1008.7 - 2.6 - - - - - - -
02/02:48pm 14.3 W 25 31 1008.7 - 2.6 - - - - - - -
02/02:35pm 14.9 WNW 19 29 1008.8 - 1.6 - - - - - - -
02/02:30pm 17.4 WNW 18 25 1008.6 - 0.6 - - - - - - -
02/02:19pm 18.9 WNW 20 30 1008.7 - 0.6 - - - - - - -
02/02:00pm 18.1 WNW 21 28 1008.9 - 0.6 - - - - - - -
02/01:30pm 18.2 WNW 21 32 1009.3 - 0.6 - - - - - - -
02/01:10pm 17.9 WNW 19 29 1009.6 - 0.6 - - - - - - -
02/01:00pm 16.9 WNW 20 28 1009.6 - 0.6 - - - - - - -
02/12:50pm 17.3 WNW 17 27 1009.6 - 0.6 - - - - - - -
02/12:30pm 16.7 WNW 16 23 1009.9 - 0.6 - - - - - - -
02/12:00pm 14.4 WNW 18 27 1010.3 - 0.6 - - - - - - -
02/11:52am 15.0 WNW 17 27 1010.3 - 0.2 - - - - - - -
02/11:30am 16.8 WNW 17 25 1010.4 - 0.0 - - - - - - -
02/11:00am 15.6 NW 19 29 1010.7 - 0.0 - - - - - - -
02/10:54am 15.2 NW 16 29 1010.7 - 0.0 - - - - - - -
02/10:30am 16.1 NW 17 25 1010.9 - 0.0 - - - - - - -
02/10:00am 15.8 NW 15 23 1011.2 - 0.0 - - - - - - -
02/09:30am 15.6 WNW 15 22 1011.6 F 2.8 Fine Mostly cloudy 15 3 5.5 7 SW
02/09:00am 14.8 NW 12 16 1011.5 - 2.8 - - - - - - -
02/08:30am 13.5 NW 15 21 1011.6 - 2.8 - - - - - - -
02/08:00am 13.2 WNW 15 21 1011.4 - 2.8 - - - - - - -
02/07:30am 12.5 WNW 16 22 1011.4 - 2.8 - - - - - - -
02/07:08am 11.9 W 19 29 1011.5 - 1.6 - - - - - - -
02/07:00am 12.8 W 22 28 1011.5 - 0.8 - - - - - - -
02/06:44am 14.4 WNW 15 25 1011.3 - 0.6 - - - - - - -
02/06:30am 14.4 WNW 14 18 1011.4 - 0.6 - - - - - - -
02/06:00am 14.3 W 18 26 1011.5 - 0.6 - - - - - - -

Other Formats:

Comma delimited format used in spreadsheet applications
http://www.bom.gov.au/fwo/IDT60701/IDT60701.95805.axf

JavaScript Object Notation format (JSON) in row-major order
http://www.bom.gov.au/fwo/IDT60701/IDT60701.95805.json